sensor_id;sensor_type;location;lat;lon;timestamp;temperature;humidity
1055;DHT22;516;51.482;7.120;2023-03-31T00:05:59;11.20;99.90
1055;DHT22;516;51.482;7.120;2023-03-31T00:11:50;11.20;99.90
1055;DHT22;516;51.482;7.120;2023-03-31T00:17:38;11.00;99.90
1055;DHT22;516;51.482;7.120;2023-03-31T00:23:26;11.10;99.90
1055;DHT22;516;51.482;7.120;2023-03-31T00:29:14;11.10;99.90
1055;DHT22;516;51.482;7.120;2023-03-31T00:35:02;11.20;99.90
1055;DHT22;516;51.482;7.120;2023-03-31T00:40:50;11.20;99.90
1055;DHT22;516;51.482;7.120;2023-03-31T00:46:52;11.20;99.90
1055;DHT22;516;51.482;7.120;2023-03-31T00:53:04;11.30;99.90
1055;DHT22;516;51.482;7.120;2023-03-31T01:02:16;11.50;99.90
1055;DHT22;516;51.482;7.120;2023-03-31T01:08:04;11.30;99.90
1055;DHT22;516;51.482;7.120;2023-03-31T01:13:54;11.50;99.90
1055;DHT22;516;51.482;7.120;2023-03-31T02:07:59;10.80;99.90
1055;DHT22;516;51.482;7.120;2023-03-31T02:13:52;10.80;99.90
1055;DHT22;516;51.482;7.120;2023-03-31T02:19:43;10.80;99.90
1055;DHT22;516;51.482;7.120;2023-03-31T02:25:35;10.80;99.90
1055;DHT22;516;51.482;7.120;2023-03-31T02:31:47;10.70;99.90
1055;DHT22;516;51.482;7.120;2023-03-31T02:37:37;10.70;99.90
1055;DHT22;516;51.482;7.120;2023-03-31T02:43:25;10.70;99.90
1055;DHT22;516;51.482;7.120;2023-03-31T02:49:15;10.80;99.90
1055;DHT22;516;51.482;7.120;2023-03-31T03:17:45;10.70;99.90
1055;DHT22;516;51.482;7.120;2023-03-31T03:23:33;10.60;99.90
1055;DHT22;516;51.482;7.120;2023-03-31T03:32:42;10.60;99.90
1055;DHT22;516;51.482;7.120;2023-03-31T03:38:30;10.50;99.90
1055;DHT22;516;51.482;7.120;2023-03-31T03:44:17;10.50;99.90
1055;DHT22;516;51.482;7.120;2023-03-31T03:50:06;10.50;99.90
1055;DHT22;516;51.482;7.120;2023-03-31T03:55:54;10.50;99.90
1055;DHT22;516;51.482;7.120;2023-03-31T04:05:10;10.40;99.90
1055;DHT22;516;51.482;7.120;2023-03-31T04:10:57;10.50;99.90
1055;DHT22;516;51.482;7.120;2023-03-31T04:16:45;10.50;99.90
1055;DHT22;516;51.482;7.120;2023-03-31T04:22:33;10.50;99.90
1055;DHT22;516;51.482;7.120;2023-03-31T04:28:26;10.30;99.90
1055;DHT22;516;51.482;7.120;2023-03-31T04:34:20;10.40;99.90
1055;DHT22;516;51.482;7.120;2023-03-31T04:40:13;10.30;99.90
1055;DHT22;516;51.482;7.120;2023-03-31T04:46:00;10.40;99.90
1055;DHT22;516;51.482;7.120;2023-03-31T04:51:49;10.40;99.90
1055;DHT22;516;51.482;7.120;2023-03-31T04:57:37;10.50;99.90
1055;DHT22;516;51.482;7.120;2023-03-31T05:00:38;10.50;99.90
1055;DHT22;516;51.482;7.120;2023-03-31T05:03:03;10.40;99.90
1055;DHT22;516;51.482;7.120;2023-03-31T05:08:51;10.30;99.90
1055;DHT22;516;51.482;7.120;2023-03-31T05:14:39;10.30;99.90
1055;DHT22;516;51.482;7.120;2023-03-31T05:20:26;10.20;99.90
1055;DHT22;516;51.482;7.120;2023-03-31T05:26:14;10.10;99.90
1055;DHT22;516;51.482;7.120;2023-03-31T05:32:03;10.10;99.90
1055;DHT22;516;51.482;7.120;2023-03-31T05:37:50;10.10;99.90
1055;DHT22;516;51.482;7.120;2023-03-31T05:43:38;10.10;99.90
1055;DHT22;516;51.482;7.120;2023-03-31T05:49:26;10.10;99.90
1055;DHT22;516;51.482;7.120;2023-03-31T05:55:14;10.20;99.90
1055;DHT22;516;51.482;7.120;2023-03-31T06:10:58;10.30;99.90
1055;DHT22;516;51.482;7.120;2023-03-31T06:16:46;10.40;99.90
1055;DHT22;516;51.482;7.120;2023-03-31T06:22:34;10.40;99.90
1055;DHT22;516;51.482;7.120;2023-03-31T06:28:22;10.50;99.90
1055;DHT22;516;51.482;7.120;2023-03-31T06:34:11;10.30;99.90
1055;DHT22;516;51.482;7.120;2023-03-31T06:39:58;10.10;99.90
1055;DHT22;516;51.482;7.120;2023-03-31T06:45:46;10.00;99.90
1055;DHT22;516;51.482;7.120;2023-03-31T06:51:34;10.00;99.90
1055;DHT22;516;51.482;7.120;2023-03-31T06:57:22;9.90;99.90
1055;DHT22;516;51.482;7.120;2023-03-31T07:03:04;9.90;99.90
1055;DHT22;516;51.482;7.120;2023-03-31T07:08:53;9.80;99.90
1055;DHT22;516;51.482;7.120;2023-03-31T07:14:40;9.80;99.90
1055;DHT22;516;51.482;7.120;2023-03-31T07:20:12;9.70;99.90
1055;DHT22;516;51.482;7.120;2023-03-31T07:26:01;9.80;99.90
1055;DHT22;516;51.482;7.120;2023-03-31T07:31:49;9.70;99.90
1055;DHT22;516;51.482;7.120;2023-03-31T07:37:42;9.70;99.90
1055;DHT22;516;51.482;7.120;2023-03-31T07:43:30;9.80;99.90
1055;DHT22;516;51.482;7.120;2023-03-31T07:49:18;9.80;99.90
1055;DHT22;516;51.482;7.120;2023-03-31T07:55:07;9.90;99.90
1055;DHT22;516;51.482;7.120;2023-03-31T08:10:49;9.90;99.90
1055;DHT22;516;51.482;7.120;2023-03-31T08:16:37;10.20;99.90
1055;DHT22;516;51.482;7.120;2023-03-31T08:22:25;10.20;99.90
1055;DHT22;516;51.482;7.120;2023-03-31T08:28:13;10.00;99.90
1055;DHT22;516;51.482;7.120;2023-03-31T08:34:00;9.80;99.90
1055;DHT22;516;51.482;7.120;2023-03-31T08:39:49;9.80;99.90
1055;DHT22;516;51.482;7.120;2023-03-31T08:45:40;9.70;99.90
1055;DHT22;516;51.482;7.120;2023-03-31T09:21:32;10.70;99.90
1055;DHT22;516;51.482;7.120;2023-03-31T09:27:23;10.80;99.90
1055;DHT22;516;51.482;7.120;2023-03-31T09:39:42;11.10;99.90
1055;DHT22;516;51.482;7.120;2023-03-31T09:45:30;11.20;99.90
1055;DHT22;516;51.482;7.120;2023-03-31T09:51:25;11.20;99.90
1055;DHT22;516;51.482;7.120;2023-03-31T10:03:52;11.30;99.90
1055;DHT22;516;51.482;7.120;2023-03-31T10:09:37;11.40;99.90
1055;DHT22;516;51.482;7.120;2023-03-31T10:15:27;11.70;99.90
1055;DHT22;516;51.482;7.120;2023-03-31T10:21:22;12.00;99.90
1055;DHT22;516;51.482;7.120;2023-03-31T10:27:30;12.50;99.90
1055;DHT22;516;51.482;7.120;2023-03-31T10:33:25;12.70;99.90
1055;DHT22;516;51.482;7.120;2023-03-31T10:39:15;11.80;99.90
1055;DHT22;516;51.482;7.120;2023-03-31T10:51:04;10.70;99.90
1055;DHT22;516;51.482;7.120;2023-03-31T10:56:58;11.20;99.90
1055;DHT22;516;51.482;7.120;2023-03-31T11:16:05;13.30;99.90
1055;DHT22;516;51.482;7.120;2023-03-31T11:41:03;12.50;99.90
1055;DHT22;516;51.482;7.120;2023-03-31T11:47:19;12.60;99.90
1055;DHT22;516;51.482;7.120;2023-03-31T11:53:18;13.30;99.90
1055;DHT22;516;51.482;7.120;2023-03-31T11:59:31;14.00;99.90
1055;DHT22;516;51.482;7.120;2023-03-31T12:05:20;14.20;99.90
1055;DHT22;516;51.482;7.120;2023-03-31T12:11:14;13.80;99.90
1055;DHT22;516;51.482;7.120;2023-03-31T12:17:26;13.60;99.90
1055;DHT22;516;51.482;7.120;2023-03-31T12:20:24;13.60;99.90
1055;DHT22;516;51.482;7.120;2023-03-31T12:23:15;13.80;99.90
1055;DHT22;516;51.482;7.120;2023-03-31T12:35:56;13.40;99.90
1055;DHT22;516;51.482;7.120;2023-03-31T13:00:28;12.40;99.90
1055;DHT22;516;51.482;7.120;2023-03-31T13:15:38;13.90;99.90
1055;DHT22;516;51.482;7.120;2023-03-31T13:21:09;14.90;99.90
1055;DHT22;516;51.482;7.120;2023-03-31T13:33:57;14.00;99.90
1055;DHT22;516;51.482;7.120;2023-03-31T14:19:31;14.50;96.00
1055;DHT22;516;51.482;7.120;2023-03-31T14:37:33;14.70;64.20
1055;DHT22;516;51.482;7.120;2023-03-31T14:43:27;14.70;61.20
1055;DHT22;516;51.482;7.120;2023-03-31T14:49:24;14.70;60.80
1055;DHT22;516;51.482;7.120;2023-03-31T14:55:16;14.60;54.90
1055;DHT22;516;51.482;7.120;2023-03-31T15:01:06;14.40;56.60
1055;DHT22;516;51.482;7.120;2023-03-31T15:06:56;14.20;49.90
1055;DHT22;516;51.482;7.120;2023-03-31T15:22:28;12.30;99.90
1055;DHT22;516;51.482;7.120;2023-03-31T15:28:17;12.20;99.90
1055;DHT22;516;51.482;7.120;2023-03-31T15:34:18;12.00;99.90
1055;DHT22;516;51.482;7.120;2023-03-31T15:53:45;12.20;99.90
1055;DHT22;516;51.482;7.120;2023-03-31T15:59:51;12.40;99.90
1055;DHT22;516;51.482;7.120;2023-03-31T16:16:03;12.50;99.90
1055;DHT22;516;51.482;7.120;2023-03-31T16:21:57;12.40;99.90
1055;DHT22;516;51.482;7.120;2023-03-31T16:27:52;12.40;99.90
1055;DHT22;516;51.482;7.120;2023-03-31T16:33:55;12.40;99.90
1055;DHT22;516;51.482;7.120;2023-03-31T16:39:43;12.30;99.90
1055;DHT22;516;51.482;7.120;2023-03-31T16:45:31;12.20;99.90
1055;DHT22;516;51.482;7.120;2023-03-31T16:51:19;12.10;99.90
1055;DHT22;516;51.482;7.120;2023-03-31T16:57:07;12.10;99.90
1055;DHT22;516;51.482;7.120;2023-03-31T17:02:55;11.90;99.90
1055;DHT22;516;51.482;7.120;2023-03-31T17:08:44;11.70;99.90
1055;DHT22;516;51.482;7.120;2023-03-31T17:11:29;11.60;99.90
1055;DHT22;516;51.482;7.120;2023-03-31T17:13:55;11.50;99.90
1055;DHT22;516;51.482;7.120;2023-03-31T17:19:43;11.40;99.90
1055;DHT22;516;51.482;7.120;2023-03-31T17:25:31;11.20;99.90
1055;DHT22;516;51.482;7.120;2023-03-31T17:31:20;11.00;99.90
1055;DHT22;516;51.482;7.120;2023-03-31T17:37:08;10.90;99.90
1055;DHT22;516;51.482;7.120;2023-03-31T17:42:56;10.90;99.90
1055;DHT22;516;51.482;7.120;2023-03-31T17:48:44;10.80;99.90
1055;DHT22;516;51.482;7.120;2023-03-31T17:54:32;10.70;99.90
1055;DHT22;516;51.482;7.120;2023-03-31T18:00:19;10.60;99.90
1055;DHT22;516;51.482;7.120;2023-03-31T18:06:09;10.70;99.90
1055;DHT22;516;51.482;7.120;2023-03-31T18:21:52;10.50;99.90
1055;DHT22;516;51.482;7.120;2023-03-31T18:27:39;10.50;99.90
1055;DHT22;516;51.482;7.120;2023-03-31T18:33:27;10.50;99.90
1055;DHT22;516;51.482;7.120;2023-03-31T18:39:15;10.50;99.90
1055;DHT22;516;51.482;7.120;2023-03-31T18:45:03;10.50;99.90
1055;DHT22;516;51.482;7.120;2023-03-31T18:50:52;10.50;99.90
1055;DHT22;516;51.482;7.120;2023-03-31T18:56:40;10.60;99.90
1055;DHT22;516;51.482;7.120;2023-03-31T19:02:28;10.50;99.90
1055;DHT22;516;51.482;7.120;2023-03-31T19:08:15;10.60;99.90
1055;DHT22;516;51.482;7.120;2023-03-31T19:14:00;10.70;99.90
1055;DHT22;516;51.482;7.120;2023-03-31T19:19:48;10.70;99.90
1055;DHT22;516;51.482;7.120;2023-03-31T19:25:36;10.80;99.90
1055;DHT22;516;51.482;7.120;2023-03-31T19:31:24;10.70;99.90
1055;DHT22;516;51.482;7.120;2023-03-31T19:37:12;10.60;99.90
1055;DHT22;516;51.482;7.120;2023-03-31T19:43:00;10.30;99.90
1055;DHT22;516;51.482;7.120;2023-03-31T19:48:47;10.10;99.90
1055;DHT22;516;51.482;7.120;2023-03-31T19:54:35;10.00;99.90
1055;DHT22;516;51.482;7.120;2023-03-31T20:00:24;10.00;99.90
1055;DHT22;516;51.482;7.120;2023-03-31T20:06:13;10.00;99.90
1055;DHT22;516;51.482;7.120;2023-03-31T20:16:04;10.00;99.90
1055;DHT22;516;51.482;7.120;2023-03-31T20:21:52;9.90;99.90
1055;DHT22;516;51.482;7.120;2023-03-31T20:27:44;9.90;99.90
1055;DHT22;516;51.482;7.120;2023-03-31T20:33:32;9.90;99.90
1055;DHT22;516;51.482;7.120;2023-03-31T20:39:20;10.10;99.90
1055;DHT22;516;51.482;7.120;2023-03-31T20:45:08;10.10;99.90
1055;DHT22;516;51.482;7.120;2023-03-31T20:50:56;10.00;99.90
1055;DHT22;516;51.482;7.120;2023-03-31T20:56:44;10.10;99.90
1055;DHT22;516;51.482;7.120;2023-03-31T21:02:32;10.00;99.90
1055;DHT22;516;51.482;7.120;2023-03-31T21:08:20;10.10;99.90
1055;DHT22;516;51.482;7.120;2023-03-31T21:13:57;10.00;99.90
1055;DHT22;516;51.482;7.120;2023-03-31T21:19:45;10.10;99.90
1055;DHT22;516;51.482;7.120;2023-03-31T21:25:33;10.00;99.90
1055;DHT22;516;51.482;7.120;2023-03-31T21:31:22;10.00;99.90
1055;DHT22;516;51.482;7.120;2023-03-31T21:37:10;10.00;99.90
1055;DHT22;516;51.482;7.120;2023-03-31T21:42:58;10.10;99.90
1055;DHT22;516;51.482;7.120;2023-03-31T21:48:47;10.10;99.90
1055;DHT22;516;51.482;7.120;2023-03-31T21:54:35;10.00;99.90
1055;DHT22;516;51.482;7.120;2023-03-31T22:00:23;10.00;99.90
1055;DHT22;516;51.482;7.120;2023-03-31T22:06:12;10.00;99.90
1055;DHT22;516;51.482;7.120;2023-03-31T22:21:53;10.10;99.90
1055;DHT22;516;51.482;7.120;2023-03-31T22:27:41;10.10;99.90
1055;DHT22;516;51.482;7.120;2023-03-31T22:33:29;10.20;99.90
1055;DHT22;516;51.482;7.120;2023-03-31T22:39:17;10.10;99.90
1055;DHT22;516;51.482;7.120;2023-03-31T22:45:05;9.90;99.90
1055;DHT22;516;51.482;7.120;2023-03-31T22:50:53;9.90;99.90
1055;DHT22;516;51.482;7.120;2023-03-31T22:56:42;10.00;99.90
1055;DHT22;516;51.482;7.120;2023-03-31T23:02:30;10.10;99.90
1055;DHT22;516;51.482;7.120;2023-03-31T23:08:18;10.10;99.90
1055;DHT22;516;51.482;7.120;2023-03-31T23:13:58;10.20;99.90
1055;DHT22;516;51.482;7.120;2023-03-31T23:19:46;10.20;99.90
1055;DHT22;516;51.482;7.120;2023-03-31T23:25:34;10.00;99.90
1055;DHT22;516;51.482;7.120;2023-03-31T23:31:24;10.00;99.90
1055;DHT22;516;51.482;7.120;2023-03-31T23:37:13;9.90;99.90
1055;DHT22;516;51.482;7.120;2023-03-31T23:43:00;9.80;99.90
1055;DHT22;516;51.482;7.120;2023-03-31T23:48:49;10.00;99.90
1055;DHT22;516;51.482;7.120;2023-03-31T23:54:36;9.80;99.90
